createdAt,value
2017-12-19T00:00:00.824Z,2.72
2017-12-19T00:01:01.389Z,2.74
2017-12-19T00:02:01.953Z,2.74
2017-12-19T00:03:02.517Z,2.69
2017-12-19T00:04:03.082Z,2.74
2017-12-19T00:05:03.647Z,2.79
2017-12-19T00:06:04.211Z,2.77
2017-12-19T00:07:04.776Z,2.86
2017-12-19T00:08:05.340Z,2.80
2017-12-19T00:09:05.904Z,2.90
2017-12-19T00:10:06.470Z,2.80
2017-12-19T00:11:07.035Z,2.82
2017-12-19T00:12:07.599Z,2.77
2017-12-19T00:13:08.163Z,2.72
2017-12-19T00:14:08.728Z,2.74
2017-12-19T00:15:09.292Z,2.79
2017-12-19T00:16:09.858Z,2.65
2017-12-19T00:17:10.433Z,2.79
2017-12-19T00:18:11.000Z,2.79
2017-12-19T00:19:11.576Z,2.72
2017-12-19T00:20:12.141Z,2.72
2017-12-19T00:21:12.705Z,2.69
2017-12-19T00:22:13.271Z,2.69
2017-12-19T00:23:13.837Z,2.74
2017-12-19T00:24:14.403Z,2.71
2017-12-19T00:25:14.970Z,2.71
2017-12-19T00:26:15.535Z,2.68
2017-12-19T00:27:16.102Z,2.69
2017-12-19T00:28:16.666Z,2.71
2017-12-19T00:29:17.233Z,2.71
2017-12-19T00:30:17.801Z,2.71
2017-12-19T00:31:18.375Z,2.77
2017-12-19T00:32:18.942Z,2.72
2017-12-19T00:33:19.507Z,2.71
2017-12-19T00:34:20.074Z,2.74
2017-12-19T00:35:20.639Z,2.77
2017-12-19T00:36:21.205Z,2.85
2017-12-19T00:37:21.790Z,2.80
2017-12-19T00:38:22.334Z,2.77
2017-12-19T00:39:22.898Z,2.77
2017-12-19T00:40:23.463Z,2.74
2017-12-19T00:41:24.028Z,2.80
2017-12-19T00:42:24.594Z,2.75
2017-12-19T00:43:25.159Z,2.75
2017-12-19T00:44:25.724Z,2.74
2017-12-19T00:45:26.292Z,2.69
2017-12-19T00:46:26.855Z,2.79
2017-12-19T00:47:27.432Z,2.75
2017-12-19T00:48:27.997Z,2.75
2017-12-19T00:49:28.564Z,2.74
2017-12-19T00:50:29.129Z,2.77
2017-12-19T00:51:29.694Z,3.00
2017-12-19T00:52:30.272Z,2.97
2017-12-19T00:53:30.837Z,2.92
2017-12-19T00:54:31.403Z,2.92
2017-12-19T00:55:31.969Z,2.90
2017-12-19T00:56:32.535Z,2.85
2017-12-19T00:57:33.100Z,2.83
2017-12-19T00:58:33.666Z,2.95
2017-12-19T00:59:34.232Z,2.92
2017-12-19T01:00:34.797Z,2.89
2017-12-19T01:01:35.360Z,2.93
2017-12-19T01:02:35.926Z,2.95
2017-12-19T01:03:36.490Z,2.85
2017-12-19T01:04:37.067Z,2.98
2017-12-19T01:05:37.634Z,2.87
2017-12-19T01:06:38.199Z,2.83
2017-12-19T01:07:38.765Z,2.83
2017-12-19T01:08:39.340Z,2.80
2017-12-19T01:09:39.904Z,2.92
2017-12-19T01:10:40.469Z,2.80
2017-12-19T01:11:41.034Z,2.82
2017-12-19T01:12:41.598Z,2.83
2017-12-19T01:13:42.163Z,2.80
2017-12-19T01:14:42.729Z,2.79
2017-12-19T01:15:43.293Z,2.83
2017-12-19T01:16:43.862Z,2.97
2017-12-19T01:17:44.437Z,2.86
2017-12-19T01:18:45.004Z,2.89
2017-12-19T01:19:45.580Z,2.86
2017-12-19T01:20:46.145Z,2.95
2017-12-19T01:21:46.712Z,2.89
2017-12-19T01:22:47.287Z,2.85
2017-12-19T01:23:47.851Z,2.85
2017-12-19T01:24:48.416Z,2.86
2017-12-19T01:25:48.981Z,2.86
2017-12-19T01:26:49.543Z,2.92
2017-12-19T01:27:50.109Z,2.89
2017-12-19T01:28:50.673Z,2.89
2017-12-19T01:29:51.239Z,2.85
2017-12-19T01:30:51.803Z,2.83
2017-12-19T01:31:52.367Z,2.83
2017-12-19T01:32:52.933Z,2.90
2017-12-19T01:33:53.498Z,2.89
2017-12-19T01:34:54.063Z,2.86
2017-12-19T01:35:54.631Z,2.87
2017-12-19T01:36:55.202Z,2.86
2017-12-19T01:37:55.755Z,2.93
2017-12-19T01:38:56.320Z,2.90
2017-12-19T01:39:56.885Z,2.98
2017-12-19T01:40:57.456Z,2.93
2017-12-19T01:41:58.013Z,2.98
2017-12-19T01:42:58.579Z,2.97
2017-12-19T01:43:59.157Z,2.89
2017-12-19T01:44:59.731Z,2.93
2017-12-19T01:46:00.300Z,2.95
2017-12-19T01:47:00.873Z,2.97
2017-12-19T01:48:01.438Z,3.03
2017-12-19T01:49:02.066Z,2.89
2017-12-19T01:50:02.570Z,2.92
2017-12-19T01:51:03.144Z,3.11
2017-12-19T01:52:03.710Z,3.10
2017-12-19T01:53:04.277Z,3.18
2017-12-19T01:54:04.846Z,3.16
2017-12-19T01:55:05.408Z,3.19
2017-12-19T01:56:05.972Z,3.18
2017-12-19T01:57:06.538Z,3.13
2017-12-19T01:58:07.101Z,3.13
2017-12-19T01:59:07.668Z,3.14
2017-12-19T02:00:08.233Z,3.13
2017-12-19T02:01:08.799Z,3.13
2017-12-19T02:02:09.365Z,3.16
2017-12-19T02:03:09.930Z,3.05
2017-12-19T02:04:10.495Z,3.01
2017-12-19T02:05:11.061Z,2.98
2017-12-19T02:06:11.626Z,2.93
2017-12-19T02:07:12.191Z,3.13
2017-12-19T02:08:12.755Z,3.05
2017-12-19T02:09:13.320Z,3.04
2017-12-19T02:10:13.884Z,3.13
2017-12-19T02:11:14.455Z,3.01
2017-12-19T02:12:15.028Z,3.08
2017-12-19T02:13:15.592Z,3.19
2017-12-19T02:14:16.158Z,3.19
2017-12-19T02:15:16.723Z,3.18
2017-12-19T02:16:17.289Z,3.11
2017-12-19T02:17:17.857Z,3.18
2017-12-19T02:18:18.421Z,3.14
2017-12-19T02:19:18.985Z,3.19
2017-12-19T02:20:19.552Z,3.22
2017-12-19T02:21:20.118Z,3.23
2017-12-19T02:22:20.682Z,3.28
2017-12-19T02:23:21.247Z,3.19
2017-12-19T02:24:21.811Z,3.34
2017-12-19T02:25:22.375Z,3.22
2017-12-19T02:26:22.942Z,3.11
2017-12-19T02:27:23.510Z,3.23
2017-12-19T02:28:24.071Z,3.41
2017-12-19T02:29:24.646Z,3.25
2017-12-19T02:30:25.212Z,3.28
2017-12-19T02:31:25.778Z,3.32
2017-12-19T02:32:26.343Z,3.36
2017-12-19T02:33:26.910Z,3.31
2017-12-19T02:34:27.475Z,3.36
2017-12-19T02:35:28.042Z,3.34
2017-12-19T02:36:28.607Z,3.23
2017-12-19T02:37:29.173Z,3.26
2017-12-19T02:38:29.739Z,3.22
2017-12-19T02:39:30.304Z,3.19
2017-12-19T02:40:30.868Z,3.23
2017-12-19T02:41:31.436Z,3.41
2017-12-19T02:42:32.012Z,3.32
2017-12-19T02:43:32.577Z,3.32
2017-12-19T02:44:33.151Z,3.32
2017-12-19T02:45:33.724Z,3.32
2017-12-19T02:46:34.289Z,3.45
2017-12-19T02:47:34.853Z,3.47
2017-12-19T02:48:35.417Z,3.50
2017-12-19T02:49:35.982Z,3.55
2017-12-19T02:50:36.546Z,3.63
2017-12-19T02:51:37.112Z,3.48
2017-12-19T02:52:37.677Z,3.42
2017-12-19T02:53:38.242Z,3.45
2017-12-19T02:54:38.807Z,3.26
2017-12-19T02:55:39.370Z,3.34
2017-12-19T02:56:39.935Z,3.32
2017-12-19T02:57:40.512Z,3.34
2017-12-19T02:58:41.078Z,3.47
2017-12-19T02:59:41.653Z,3.44
2017-12-19T03:00:42.230Z,3.29
2017-12-19T03:01:42.796Z,3.36
2017-12-19T03:02:43.364Z,3.45
2017-12-19T03:03:43.930Z,3.31
2017-12-19T03:04:44.496Z,3.37
2017-12-19T03:05:45.061Z,3.45
2017-12-19T03:06:45.625Z,3.37
2017-12-19T03:07:46.191Z,3.45
2017-12-19T06:59:45.990Z,3.88
2017-12-19T07:00:46.554Z,3.88
2017-12-19T07:01:47.120Z,3.88
2017-12-19T07:02:47.685Z,3.86
2017-12-19T07:03:48.250Z,3.91
2017-12-19T07:04:48.816Z,3.87
2017-12-19T07:05:49.381Z,3.88
2017-12-19T07:06:49.946Z,3.91
2017-12-19T07:07:50.512Z,3.91
2017-12-19T07:08:51.076Z,3.92
2017-12-19T07:09:51.642Z,3.94
2017-12-19T07:10:52.208Z,3.91
2017-12-19T07:11:52.779Z,3.92
2017-12-19T07:12:53.338Z,3.91
2017-12-19T07:13:53.902Z,3.91
2017-12-19T07:14:54.467Z,4.01
2017-12-19T07:15:55.033Z,3.94
2017-12-19T07:16:55.599Z,3.98
2017-12-19T07:17:56.164Z,3.94
2017-12-19T07:18:56.729Z,4.01
2017-12-19T07:19:57.295Z,3.99
2017-12-19T07:20:57.860Z,3.98
2017-12-19T07:21:58.424Z,3.96
2017-12-19T07:22:58.990Z,4.06
2017-12-19T07:23:59.555Z,3.99
2017-12-19T07:25:00.121Z,3.94
2017-12-19T07:26:00.687Z,3.99
2017-12-19T07:27:01.262Z,4.05
2017-12-19T07:28:01.828Z,4.02
2017-12-19T07:29:02.396Z,4.02
2017-12-19T07:30:02.961Z,4.01
2017-12-19T07:31:03.529Z,4.02
2017-12-19T07:32:04.095Z,4.02
2017-12-19T07:33:04.661Z,4.05
2017-12-19T07:34:05.227Z,4.01
2017-12-19T07:35:05.803Z,4.06
2017-12-19T07:36:06.370Z,4.04
2017-12-19T07:37:07.140Z,4.08
2017-12-19T07:38:07.715Z,4.08
2017-12-19T07:39:08.293Z,4.13
2017-12-19T07:40:08.859Z,4.04
2017-12-19T07:41:09.424Z,4.10
2017-12-19T07:42:09.992Z,4.06
2017-12-19T07:43:10.558Z,4.06
2017-12-19T07:44:11.126Z,4.05
2017-12-19T07:45:11.694Z,4.06
2017-12-19T07:46:12.263Z,4.16
2017-12-19T07:47:12.830Z,4.10
2017-12-19T07:48:13.397Z,4.12
2017-12-19T07:49:13.965Z,4.08
2017-12-19T07:50:14.531Z,4.10
2017-12-19T07:51:15.101Z,4.02
2017-12-19T07:52:15.664Z,4.06
2017-12-19T07:53:16.231Z,4.01
2017-12-19T07:54:16.799Z,3.92
2017-12-19T07:55:17.374Z,3.96
2017-12-19T07:56:17.941Z,3.96
2017-12-19T07:57:18.508Z,4.01
2017-12-19T07:58:19.076Z,3.96
2017-12-19T07:59:19.643Z,3.95
2017-12-19T08:00:20.209Z,3.95
2017-12-19T08:01:20.775Z,4.02
2017-12-19T08:02:21.393Z,3.98
2017-12-19T08:03:21.908Z,4.02
2017-12-19T08:04:22.473Z,3.95
2017-12-19T08:05:23.040Z,3.99
2017-12-19T08:06:23.620Z,4.02
2017-12-19T08:07:24.193Z,4.02
2017-12-19T08:08:24.760Z,4.12
2017-12-19T08:09:25.328Z,4.13
2017-12-19T08:10:25.897Z,4.12
2017-12-19T08:11:26.462Z,4.12
2017-12-19T08:12:27.031Z,4.05
2017-12-19T08:13:27.597Z,4.10
2017-12-19T08:14:28.163Z,4.12
2017-12-19T08:15:28.740Z,4.06
2017-12-19T08:16:29.307Z,4.08
2017-12-19T08:17:29.878Z,4.06
2017-12-19T08:18:30.440Z,4.10
2017-12-19T08:19:31.009Z,4.12
2017-12-19T08:20:31.575Z,4.13
2017-12-19T08:21:32.141Z,4.08
2017-12-19T08:22:32.708Z,4.10
2017-12-19T08:23:33.274Z,4.19
2017-12-19T08:24:33.839Z,4.13
2017-12-19T08:25:34.406Z,4.13
2017-12-19T08:26:34.971Z,4.20
2017-12-19T08:27:35.539Z,4.16
2017-12-19T08:28:36.108Z,4.14
2017-12-19T08:29:36.675Z,4.12
2017-12-19T08:30:37.242Z,4.16
2017-12-19T08:31:37.808Z,4.14
2017-12-19T08:32:38.377Z,4.12
2017-12-19T08:33:38.944Z,4.14
2017-12-19T08:34:39.511Z,4.14
2017-12-19T08:35:40.077Z,4.14
2017-12-19T08:36:40.644Z,4.20
2017-12-19T08:37:41.214Z,4.14
2017-12-19T08:38:41.779Z,4.14
2017-12-19T08:39:42.347Z,4.20
2017-12-19T08:40:42.914Z,4.26
2017-12-19T08:41:43.481Z,4.37
2017-12-19T08:42:44.049Z,4.32
2017-12-19T08:43:44.615Z,4.38
2017-12-19T08:44:45.181Z,4.31
2017-12-19T08:45:45.749Z,4.38
2017-12-19T08:46:46.315Z,4.37
2017-12-19T08:47:46.882Z,4.35
2017-12-19T08:48:47.449Z,4.41
2017-12-19T08:49:48.016Z,4.44
2017-12-19T08:50:48.582Z,4.34
2017-12-19T08:51:49.149Z,4.32
2017-12-19T08:52:49.727Z,4.35
2017-12-19T08:53:50.294Z,4.40
2017-12-19T08:54:50.861Z,4.30
2017-12-19T08:55:51.427Z,4.38
2017-12-19T08:56:51.994Z,4.41
2017-12-19T08:57:52.560Z,4.45
2017-12-19T08:58:53.127Z,4.50
2017-12-19T08:59:53.695Z,4.42
2017-12-19T09:00:54.263Z,4.52
2017-12-19T09:01:54.831Z,4.55
2017-12-19T09:02:55.408Z,4.55
2017-12-19T09:03:55.975Z,4.55
2017-12-19T09:04:56.545Z,4.55
2017-12-19T09:05:57.115Z,4.55
2017-12-19T09:06:57.683Z,4.45
2017-12-19T09:07:58.251Z,4.45
2017-12-19T09:08:58.818Z,4.48
2017-12-19T09:09:59.387Z,4.55
2017-12-19T09:10:59.956Z,4.53
2017-12-19T09:12:00.532Z,4.63
2017-12-19T09:13:01.093Z,4.50
2017-12-19T09:14:01.662Z,4.50
2017-12-19T09:15:02.230Z,4.60
2017-12-19T09:16:02.798Z,4.60
2017-12-19T09:17:03.376Z,4.60
2017-12-19T09:18:03.943Z,4.62
2017-12-19T09:19:04.512Z,4.62
2017-12-19T09:20:05.092Z,4.70
2017-12-19T09:21:05.670Z,4.63
2017-12-19T09:22:06.239Z,4.63
2017-12-19T09:23:06.809Z,4.68
2017-12-19T09:24:07.376Z,4.73
2017-12-19T09:25:07.946Z,4.73
2017-12-19T09:26:08.513Z,4.75
2017-12-19T09:27:09.082Z,4.77
2017-12-19T09:28:09.651Z,4.82
2017-12-19T09:29:10.229Z,4.84
2017-12-19T09:30:10.807Z,4.82
2017-12-19T09:31:11.384Z,4.80
2017-12-19T09:32:11.952Z,4.78
2017-12-19T09:33:12.520Z,4.80
2017-12-19T09:34:13.089Z,4.78
2017-12-19T09:35:13.670Z,4.80
2017-12-19T09:36:14.237Z,4.90
2017-12-19T09:37:14.807Z,4.92
2017-12-19T09:38:15.387Z,4.84
2017-12-19T09:39:15.954Z,4.93
2017-12-19T09:40:16.532Z,4.99
2017-12-19T09:41:17.100Z,4.94
2017-12-19T09:42:17.667Z,4.92
2017-12-19T09:43:18.234Z,4.90
2017-12-19T09:44:18.802Z,4.84
2017-12-19T09:45:19.369Z,4.96
2017-12-19T09:46:19.938Z,4.90
2017-12-19T09:47:20.506Z,4.87
2017-12-19T09:48:21.076Z,4.94
2017-12-19T09:49:21.655Z,4.93
2017-12-19T09:50:22.225Z,4.90
2017-12-19T09:51:22.793Z,4.96
2017-12-19T09:52:23.364Z,4.82
2017-12-19T09:53:23.931Z,4.96
2017-12-19T09:54:24.498Z,4.92
2017-12-19T09:55:25.066Z,4.97
2017-12-19T09:56:25.635Z,4.93
2017-12-19T09:57:26.206Z,4.99
2017-12-19T09:58:26.774Z,4.82
2017-12-19T09:59:27.344Z,4.96
2017-12-19T10:00:27.911Z,4.96
2017-12-19T10:01:28.481Z,4.80
2017-12-19T10:02:29.058Z,4.99
2017-12-19T10:03:29.625Z,4.92
2017-12-19T10:04:30.194Z,4.90
2017-12-19T10:05:30.763Z,4.90
2017-12-19T10:06:31.331Z,5.04
2017-12-19T10:07:31.898Z,5.04
2017-12-19T10:08:32.467Z,4.96
2017-12-19T10:09:33.037Z,4.96
2017-12-19T10:10:33.605Z,5.00
2017-12-19T10:11:34.173Z,5.02
2017-12-19T10:12:34.741Z,4.94
2017-12-19T10:13:35.309Z,4.99
2017-12-19T10:14:35.877Z,4.99
2017-12-19T10:15:36.445Z,5.04
2017-12-19T10:16:37.025Z,5.11
2017-12-19T10:17:37.621Z,5.10
2017-12-19T10:18:38.161Z,5.00
2017-12-19T10:19:38.730Z,4.99
2017-12-19T10:20:39.303Z,5.04
2017-12-19T10:21:39.869Z,5.00
2017-12-19T10:22:40.437Z,5.05
2017-12-19T10:23:41.005Z,5.04
2017-12-19T10:24:41.584Z,5.10
2017-12-19T10:25:42.152Z,5.11
2017-12-19T10:26:42.721Z,5.14
2017-12-19T10:27:43.289Z,5.18
2017-12-19T10:28:43.856Z,5.26
2017-12-19T10:29:44.425Z,5.25
2017-12-19T10:30:44.994Z,5.35
2017-12-19T10:31:45.564Z,5.26
2017-12-19T10:32:46.133Z,5.25
2017-12-19T10:33:46.705Z,5.23
2017-12-19T10:34:47.272Z,5.32
2017-12-19T10:35:47.839Z,5.35
2017-12-19T10:36:48.419Z,5.30
2017-12-19T10:37:48.985Z,5.29
2017-12-19T10:38:49.555Z,5.33
2017-12-19T10:39:50.125Z,5.26
2017-12-19T10:40:50.694Z,5.35
2017-12-19T10:41:51.259Z,5.35
2017-12-19T10:42:51.828Z,5.32
2017-12-19T10:43:52.398Z,5.28
2017-12-19T10:44:52.966Z,5.32
2017-12-19T10:45:53.536Z,5.30
2017-12-19T10:46:54.102Z,5.28
2017-12-19T10:47:54.671Z,5.33
2017-12-19T10:48:55.240Z,5.33
2017-12-19T10:49:55.811Z,5.33
2017-12-19T10:50:56.386Z,5.35
2017-12-19T10:51:56.955Z,5.29
2017-12-19T10:52:57.536Z,5.41
2017-12-19T10:53:58.105Z,5.41
2017-12-19T10:54:58.674Z,5.39
2017-12-19T10:55:59.242Z,5.39
2017-12-19T10:56:59.810Z,5.44
2017-12-19T10:58:00.379Z,5.41
2017-12-19T10:59:00.949Z,5.46
2017-12-19T11:00:01.529Z,5.47
2017-12-19T11:01:02.096Z,5.48
2017-12-19T11:02:02.667Z,5.53
2017-12-19T11:03:03.236Z,5.50
2017-12-19T11:04:03.806Z,5.54
2017-12-19T11:05:04.387Z,5.46
2017-12-19T11:06:04.955Z,5.59
2017-12-19T11:07:05.538Z,5.57
2017-12-19T11:08:06.104Z,5.57
2017-12-19T11:09:06.673Z,5.53
2017-12-19T11:10:07.242Z,5.64
2017-12-19T11:11:07.811Z,5.56
2017-12-19T11:12:08.380Z,5.69
2017-12-19T11:13:08.948Z,5.71
2017-12-19T11:14:09.516Z,5.65
2017-12-19T11:15:10.084Z,5.66
2017-12-19T11:16:10.655Z,5.69
2017-12-19T11:17:11.226Z,5.80
2017-12-19T11:18:11.793Z,5.76
2017-12-19T11:19:12.363Z,5.73
2017-12-19T11:20:12.932Z,5.79
2017-12-19T11:21:13.511Z,5.83
2017-12-19T11:22:14.081Z,5.86
2017-12-19T11:23:14.661Z,5.90
2017-12-19T11:24:15.230Z,6.05
2017-12-19T11:25:15.803Z,5.90
2017-12-19T11:26:16.366Z,5.89
2017-12-19T11:27:16.934Z,5.93
2017-12-19T11:28:17.504Z,6.02
2017-12-19T11:29:18.072Z,6.09
2017-12-19T11:30:18.640Z,6.11
2017-12-19T11:31:19.212Z,6.05
2017-12-19T11:32:19.782Z,6.17
2017-12-19T11:33:20.350Z,6.09
2017-12-19T11:34:20.919Z,6.11
2017-12-19T11:35:21.488Z,6.14
2017-12-19T11:36:22.055Z,6.09
2017-12-19T11:37:22.624Z,6.22
2017-12-19T11:38:23.192Z,6.26
2017-12-19T11:39:23.763Z,6.24
2017-12-19T11:40:24.333Z,6.20
2017-12-19T11:41:24.902Z,6.16
2017-12-19T11:42:25.495Z,6.26
2017-12-19T11:43:26.039Z,6.27
2017-12-19T11:44:26.609Z,6.27
2017-12-19T11:45:27.179Z,6.20
2017-12-19T11:46:27.750Z,6.22
2017-12-19T11:47:28.319Z,6.33
2017-12-19T11:48:28.889Z,6.22
2017-12-19T11:49:29.459Z,6.27
2017-12-19T11:50:30.030Z,6.27
2017-12-19T11:51:30.600Z,6.31
2017-12-19T11:52:31.169Z,6.26
2017-12-19T11:53:31.740Z,6.27
2017-12-19T11:54:32.309Z,6.26
2017-12-19T11:55:32.878Z,6.30
2017-12-19T11:56:33.450Z,6.33
2017-12-19T11:57:34.015Z,6.26
2017-12-19T11:58:34.583Z,6.30
2017-12-19T11:59:35.154Z,6.36
2017-12-19T12:00:35.723Z,6.31
2017-12-19T12:01:36.292Z,6.28
2017-12-19T12:02:36.863Z,6.30
2017-12-19T12:03:37.431Z,6.36
2017-12-19T12:04:37.999Z,6.33
2017-12-19T12:05:38.579Z,6.36
2017-12-19T12:06:39.158Z,6.36
2017-12-19T12:07:39.726Z,6.46
2017-12-19T12:08:40.297Z,6.52
2017-12-19T12:09:40.866Z,6.33
2017-12-19T12:10:41.438Z,6.39
2017-12-19T12:11:42.005Z,6.38
2017-12-19T12:12:42.573Z,6.33
2017-12-19T12:13:43.143Z,6.33
2017-12-19T12:14:43.713Z,6.31
2017-12-19T12:15:44.327Z,6.33
2017-12-19T12:16:44.853Z,6.39
2017-12-19T12:17:45.426Z,6.36
2017-12-19T12:18:46.004Z,6.36
2017-12-19T12:19:46.572Z,6.36
2017-12-19T12:20:47.144Z,6.33
2017-12-19T12:21:47.711Z,6.36
2017-12-19T12:22:48.281Z,6.36
2017-12-19T12:23:48.851Z,6.36
2017-12-19T12:24:49.419Z,6.33
2017-12-19T12:25:49.988Z,6.35
2017-12-19T12:26:50.561Z,6.52
2017-12-19T12:27:51.128Z,6.42
2017-12-19T12:28:51.953Z,6.48
2017-12-19T12:29:52.469Z,6.54
2017-12-19T12:30:53.040Z,6.51
2017-12-19T12:31:53.611Z,6.49
2017-12-19T12:32:54.179Z,6.59
2017-12-19T12:33:54.756Z,6.51
2017-12-19T12:34:55.325Z,6.56
2017-12-19T12:35:55.895Z,6.60
2017-12-19T12:36:56.467Z,6.49
2017-12-19T12:37:57.035Z,6.60
2017-12-19T12:38:57.614Z,6.70
2017-12-19T12:39:58.185Z,6.59
2017-12-19T12:40:58.754Z,6.66
2017-12-19T12:41:59.323Z,6.70
2017-12-19T12:42:59.894Z,6.67
2017-12-19T12:44:00.461Z,6.63
2017-12-19T12:45:01.036Z,6.67
2017-12-19T12:46:01.602Z,6.72
2017-12-19T12:47:02.172Z,6.66
2017-12-19T12:48:02.739Z,6.67
2017-12-19T12:49:03.314Z,6.66
2017-12-19T12:50:03.885Z,6.75
2017-12-19T12:51:04.454Z,6.77
2017-12-19T12:52:05.026Z,6.75
2017-12-19T12:53:05.596Z,6.77
2017-12-19T12:54:06.167Z,6.78
2017-12-19T12:55:06.734Z,6.77
2017-12-19T12:56:07.327Z,6.87
2017-12-19T12:57:07.897Z,6.82
2017-12-19T12:58:08.468Z,6.78
2017-12-19T12:59:09.038Z,6.75
2017-12-19T13:00:09.607Z,6.72
2017-12-19T13:01:10.176Z,6.70
2017-12-19T13:02:10.746Z,6.74
2017-12-19T13:03:11.360Z,6.77
2017-12-19T13:04:11.991Z,6.79
2017-12-19T13:05:12.561Z,6.82
2017-12-19T13:06:13.132Z,6.85
2017-12-19T13:07:13.713Z,6.89
2017-12-19T13:08:14.284Z,6.79
2017-12-19T13:09:14.855Z,6.82
2017-12-19T13:10:15.426Z,6.89
2017-12-19T13:11:16.006Z,6.87
2017-12-19T13:12:16.576Z,6.96
2017-12-19T13:13:17.146Z,6.87
2017-12-19T13:14:17.712Z,6.84
2017-12-19T13:15:18.282Z,6.75
2017-12-19T13:16:18.851Z,6.82
2017-12-19T13:17:19.420Z,6.85
2017-12-19T13:18:19.989Z,6.84
2017-12-19T13:19:20.560Z,6.85
2017-12-19T13:20:21.129Z,6.84
2017-12-19T13:21:21.699Z,6.92
2017-12-19T13:22:22.267Z,6.84
2017-12-19T13:23:22.837Z,6.84
2017-12-19T13:24:23.405Z,6.85
2017-12-19T13:25:23.974Z,6.87
2017-12-19T13:26:24.545Z,6.85
2017-12-19T13:27:25.125Z,6.81
2017-12-19T13:28:25.694Z,6.79
2017-12-19T13:29:26.262Z,6.88
2017-12-19T13:30:26.841Z,6.78
2017-12-19T13:31:27.412Z,6.78
2017-12-19T13:32:27.981Z,6.81
2017-12-19T13:33:28.549Z,6.88
2017-12-19T13:34:29.118Z,6.88
2017-12-19T13:35:29.687Z,6.81
2017-12-19T13:36:30.258Z,6.78
2017-12-19T13:37:30.827Z,6.82
2017-12-19T13:38:31.398Z,6.81
2017-12-19T13:39:31.967Z,6.88
2017-12-19T13:40:32.538Z,6.81
2017-12-19T13:41:33.105Z,6.75
2017-12-19T13:42:33.675Z,6.84
2017-12-19T13:43:34.245Z,6.82
2017-12-19T13:44:34.815Z,6.77
2017-12-19T13:45:35.387Z,6.82
2017-12-19T13:46:35.968Z,6.82
2017-12-19T13:47:36.525Z,6.82
2017-12-19T13:48:37.103Z,6.79
2017-12-19T13:49:37.663Z,6.87
2017-12-19T13:50:38.234Z,6.79
2017-12-19T13:51:38.804Z,6.79
2017-12-19T13:52:39.374Z,6.82
2017-12-19T13:53:39.954Z,6.82
2017-12-19T13:54:40.523Z,6.78
2017-12-19T13:55:41.093Z,6.79
2017-12-19T13:56:41.661Z,6.81
2017-12-19T13:57:42.233Z,6.82
2017-12-19T13:58:42.799Z,6.75
2017-12-19T13:59:43.367Z,6.77
2017-12-19T14:00:43.935Z,6.75
2017-12-19T14:01:44.503Z,6.81
2017-12-19T14:02:45.076Z,6.82
2017-12-19T14:03:45.641Z,6.72
2017-12-19T14:04:46.260Z,6.78
2017-12-19T14:05:46.839Z,6.69
2017-12-19T14:06:47.398Z,6.74
2017-12-19T14:07:47.966Z,6.79
2017-12-19T14:08:48.545Z,6.72
2017-12-19T14:09:49.115Z,6.69
2017-12-19T14:10:49.682Z,6.78
2017-12-19T14:11:50.252Z,6.72
2017-12-19T14:12:50.820Z,6.66
2017-12-19T14:13:51.396Z,6.75
2017-12-19T14:14:51.957Z,6.75
2017-12-19T14:15:52.525Z,6.70
2017-12-19T14:16:53.094Z,6.79
2017-12-19T14:17:53.661Z,6.77
2017-12-19T14:18:54.232Z,6.67
2017-12-19T14:19:54.799Z,6.69
2017-12-19T14:20:55.369Z,6.69
2017-12-19T14:21:55.947Z,6.72
2017-12-19T14:22:56.520Z,6.66
2017-12-19T14:23:57.087Z,6.75
2017-12-19T14:24:57.655Z,6.72
2017-12-19T14:25:58.228Z,6.67
2017-12-19T14:26:58.793Z,6.66
2017-12-19T14:27:59.362Z,6.70
2017-12-19T14:28:59.930Z,6.78
2017-12-19T14:30:00.497Z,6.74
2017-12-19T14:31:01.065Z,6.72
2017-12-19T14:32:01.631Z,6.70
2017-12-19T14:33:02.200Z,6.70
2017-12-19T14:34:02.779Z,6.67
2017-12-19T14:35:03.348Z,6.70
2017-12-19T14:36:03.916Z,6.67
2017-12-19T14:37:04.483Z,6.74
2017-12-19T14:38:05.050Z,6.62
2017-12-19T14:39:05.618Z,6.64
2017-12-19T14:40:06.185Z,6.66
2017-12-19T14:41:06.753Z,6.69
2017-12-19T14:42:07.320Z,6.66
2017-12-19T14:43:07.887Z,6.62
2017-12-19T14:44:08.462Z,6.64
2017-12-19T14:45:09.023Z,6.69
2017-12-19T14:46:09.589Z,6.70
2017-12-19T14:47:10.158Z,6.66
2017-12-19T14:48:10.729Z,6.74
2017-12-19T14:49:11.295Z,6.69
2017-12-19T14:50:11.865Z,6.66
2017-12-19T14:51:12.443Z,6.74
2017-12-19T14:52:13.011Z,6.66
2017-12-19T14:53:13.604Z,6.70
2017-12-19T14:54:14.147Z,6.70
2017-12-19T14:55:14.717Z,6.63
2017-12-19T14:56:15.285Z,6.67
2017-12-19T14:57:15.862Z,6.70
2017-12-19T14:58:16.432Z,6.64
2017-12-19T14:59:17.003Z,6.69
2017-12-19T15:00:17.579Z,6.70
2017-12-19T15:01:18.148Z,6.67
2017-12-19T15:02:18.727Z,6.64
2017-12-19T15:03:19.296Z,6.62
2017-12-19T15:04:19.864Z,6.62
2017-12-19T15:05:20.432Z,6.63
2017-12-19T15:06:21.000Z,6.60
2017-12-19T15:07:21.569Z,6.57
2017-12-19T15:08:22.137Z,6.54
2017-12-19T15:09:22.705Z,6.62
2017-12-19T15:10:23.271Z,6.54
2017-12-19T15:11:23.838Z,6.60
2017-12-19T15:12:24.416Z,6.60
2017-12-19T15:13:24.984Z,6.46
2017-12-19T15:14:25.563Z,6.59
2017-12-19T15:15:26.128Z,6.62
2017-12-19T15:16:26.706Z,6.57
2017-12-19T15:17:27.275Z,6.54
2017-12-19T15:18:27.842Z,6.59
2017-12-19T15:19:28.409Z,6.59
2017-12-19T15:20:28.989Z,6.57
2017-12-19T15:21:29.555Z,6.56
2017-12-19T15:22:30.123Z,6.60
2017-12-19T15:23:30.703Z,6.46
2017-12-19T15:24:31.269Z,6.56
2017-12-19T15:25:31.835Z,6.56
2017-12-19T15:26:32.401Z,6.57
2017-12-19T15:27:32.968Z,6.57
2017-12-19T15:28:33.533Z,6.56
2017-12-19T15:29:34.100Z,6.51
2017-12-19T15:30:34.665Z,6.56
2017-12-19T15:31:35.233Z,6.51
2017-12-19T15:32:35.811Z,6.54
2017-12-19T15:33:36.379Z,6.51
2017-12-19T15:34:36.957Z,6.48
2017-12-19T15:35:37.522Z,6.51
2017-12-19T15:36:38.088Z,6.49
2017-12-19T15:37:38.662Z,6.45
2017-12-19T15:38:39.232Z,6.46
2017-12-19T15:39:39.800Z,6.41
2017-12-19T15:40:40.386Z,6.45
2017-12-19T15:41:40.955Z,6.46
2017-12-19T15:42:41.522Z,6.52
2017-12-19T15:43:42.091Z,6.46
2017-12-19T15:44:42.658Z,6.46
2017-12-19T15:45:43.227Z,6.54
2017-12-19T15:46:43.805Z,6.51
2017-12-19T15:47:44.373Z,6.49
2017-12-19T15:48:44.943Z,6.49
2017-12-19T15:49:45.509Z,6.48
2017-12-19T15:50:46.078Z,6.51
2017-12-19T15:51:46.655Z,6.46
2017-12-19T15:52:47.221Z,6.36
2017-12-19T15:53:47.788Z,6.46
2017-12-19T15:54:48.354Z,6.35
2017-12-19T15:55:48.920Z,6.44
2017-12-19T15:56:49.486Z,6.44
2017-12-19T15:57:50.051Z,6.33
2017-12-19T15:58:50.618Z,6.38
2017-12-19T15:59:51.184Z,6.35
2017-12-19T16:00:51.751Z,6.35
2017-12-19T16:01:52.318Z,6.35
2017-12-19T16:02:52.885Z,6.36
2017-12-19T16:03:53.455Z,6.33
2017-12-19T16:04:54.023Z,6.39
2017-12-19T16:05:54.585Z,6.36
2017-12-19T16:06:55.152Z,6.33
2017-12-19T16:07:55.920Z,6.36
2017-12-19T16:08:56.488Z,6.35
2017-12-19T16:09:57.055Z,6.36
2017-12-19T16:10:57.632Z,6.30
2017-12-19T16:11:58.198Z,6.35
2017-12-19T16:12:58.764Z,6.39
2017-12-19T16:13:59.331Z,6.38
2017-12-19T16:14:59.899Z,6.33
2017-12-19T16:16:00.465Z,6.36
2017-12-19T16:17:01.035Z,6.33
2017-12-19T16:18:01.598Z,6.39
2017-12-19T16:19:02.165Z,6.31
2017-12-19T16:20:02.733Z,6.33
2017-12-19T16:21:03.310Z,6.36
2017-12-19T16:22:03.880Z,6.30
2017-12-19T16:23:04.446Z,6.31
2017-12-19T16:24:05.014Z,6.33
2017-12-19T16:25:05.581Z,6.36
2017-12-19T16:26:06.154Z,6.36
2017-12-19T16:27:06.714Z,6.35
2017-12-19T16:28:07.283Z,6.31
2017-12-19T16:29:07.848Z,6.30
2017-12-19T16:30:08.426Z,6.30
2017-12-19T16:31:08.995Z,6.31
2017-12-19T16:32:09.562Z,6.28
2017-12-19T16:33:10.129Z,6.22
2017-12-19T16:34:10.707Z,6.26
2017-12-19T16:35:11.285Z,6.28
2017-12-19T16:36:11.860Z,6.33
2017-12-19T16:37:12.421Z,6.31
2017-12-19T16:38:12.988Z,6.33
2017-12-19T16:39:13.556Z,6.27
2017-12-19T16:40:14.124Z,6.30
2017-12-19T16:41:14.691Z,6.27
2017-12-19T16:42:15.258Z,6.20
2017-12-19T16:43:15.824Z,6.28
2017-12-19T16:44:16.392Z,6.24
2017-12-19T16:45:16.958Z,6.30
2017-12-19T16:46:17.526Z,6.27
2017-12-19T16:47:18.092Z,6.33
2017-12-19T16:48:18.662Z,6.31
2017-12-19T16:49:19.225Z,6.27
2017-12-19T16:50:19.792Z,6.28
2017-12-19T16:51:20.359Z,6.22
2017-12-19T16:52:20.925Z,6.27
2017-12-19T16:53:21.492Z,6.30
2017-12-19T16:54:22.058Z,6.35
2017-12-19T16:55:22.628Z,6.28
2017-12-19T16:56:23.203Z,6.30
2017-12-19T16:57:23.770Z,6.27
2017-12-19T16:58:24.347Z,6.27
2017-12-19T16:59:24.914Z,6.24
2017-12-19T17:00:25.481Z,6.33
2017-12-19T17:01:26.048Z,6.24
2017-12-19T17:02:26.614Z,6.20
2017-12-19T17:03:27.180Z,6.28
2017-12-19T17:04:27.781Z,6.27
2017-12-19T17:05:28.324Z,6.33
2017-12-19T17:06:28.895Z,6.28
2017-12-19T17:07:29.459Z,6.28
2017-12-19T17:08:30.028Z,6.27
2017-12-19T17:09:30.595Z,6.27
2017-12-19T17:10:31.163Z,6.24
2017-12-19T17:11:31.729Z,6.31
2017-12-19T17:12:32.297Z,6.27
2017-12-19T17:13:32.863Z,6.27
2017-12-19T17:14:33.431Z,6.27
2017-12-19T17:15:33.998Z,6.27
2017-12-19T17:16:34.564Z,6.20